Time;durP1;ratioP1;P1;durP2;ratioP2;P2;SDS_P1;SDS_P2;PMS_P1;PMS_P2;Temp;Humidity;BMP_temperature;BMP_pressure;BME280_temperature;BME280_humidity;BME280_pressure;Samples;Min_cycle;Max_cycle;Signal;HPM_P1;HPM_P2
2022/03/06 00:01:58;;;;;;;35.60;18.15;;;;;;;-0.25;74.55;102119.69;5052157;28;20033;-79
2022/03/06 00:04:23;;;;;;;37.55;19.33;;;;;;;-0.31;74.03;102119.75;5055789;28;20385;-79
2022/03/06 00:06:49;;;;;;;36.83;18.40;;;;;;;-0.34;74.89;102125.06;5034005;28;20048;-79
2022/03/06 00:09:14;;;;;;;35.45;20.90;;;;;;;-0.37;74.87;102126.84;5046310;28;20037;-79
2022/03/06 00:11:39;;;;;;;35.97;18.00;;;;;;;-0.38;75.01;102124.19;5028246;28;20025;-79
2022/03/06 00:14:05;;;;;;;35.13;18.70;;;;;;;-0.39;75.09;102125.09;5057558;28;20074;-79
2022/03/06 00:16:30;;;;;;;34.45;18.30;;;;;;;-0.38;74.94;102122.44;5034931;28;20499;-79
2022/03/06 00:18:56;;;;;;;32.10;17.17;;;;;;;-0.40;74.43;102126.84;5034461;28;20024;-79
2022/03/06 00:21:21;;;;;;;33.28;17.60;;;;;;;-0.42;74.64;102131.25;5052020;28;20548;-79
2022/03/06 00:23:46;;;;;;;36.38;17.80;;;;;;;-0.44;74.92;102125.13;5052571;28;20029;-79
2022/03/06 00:26:11;;;;;;;33.55;17.67;;;;;;;-0.45;74.81;102131.28;5046435;28;20388;-78
2022/03/06 00:28:37;;;;;;;35.95;17.83;;;;;;;-0.48;75.11;102122.50;5051054;28;20063;-79
2022/03/06 00:31:02;;;;;;;35.28;18.50;;;;;;;-0.53;75.41;102135.72;5051602;28;20067;-79
2022/03/06 00:33:28;;;;;;;34.22;17.92;;;;;;;-0.52;75.34;102126.94;5051511;28;20032;-78
2022/03/06 00:35:53;;;;;;;36.22;18.65;;;;;;;-0.45;75.16;102133.94;5051545;28;20439;-78
2022/03/06 00:38:18;;;;;;;36.17;18.50;;;;;;;-0.45;75.14;102133.94;5033581;28;20599;-78
2022/03/06 00:40:45;;;;;;;36.72;18.25;;;;;;;-0.46;75.18;102141.88;5033227;28;20079;-78
2022/03/06 00:43:11;;;;;;;37.00;18.38;;;;;;;-0.46;75.22;102145.38;5033029;28;20467;-78
2022/03/06 00:45:36;;;;;;;37.20;18.05;;;;;;;-0.43;75.21;102142.72;5034182;28;20029;-78
2022/03/06 00:48:02;;;;;;;35.13;18.92;;;;;;;-0.44;75.03;102148.91;5033175;28;20115;-78
2022/03/06 00:50:27;;;;;;;34.40;17.48;;;;;;;-0.43;74.59;102153.28;5033574;28;20047;-78
2022/03/06 00:52:52;;;;;;;33.00;17.67;;;;;;;-0.39;74.08;102168.22;5050926;28;20032;-78
2022/03/06 00:55:18;;;;;;;34.40;18.30;;;;;;;-0.33;73.54;102159.38;5033497;28;20036;-78
2022/03/06 00:57:43;;;;;;;38.17;18.55;;;;;;;-0.27;72.81;102164.63;5050134;28;20021;-78
2022/03/06 01:00:09;;;;;;;33.45;17.00;;;;;;;-0.23;72.89;102161.06;5051106;28;20033;-78
2022/03/06 01:02:34;;;;;;;31.50;14.95;;;;;;;-0.24;73.06;102161.09;5032088;28;20028;-78
2022/03/06 01:05:00;;;;;;;38.33;19.13;;;;;;;-0.26;73.14;102155.81;5050595;28;20048;-78
2022/03/06 01:07:25;;;;;;;34.92;17.88;;;;;;;-0.30;73.25;102158.50;5033066;28;20029;-78
2022/03/06 01:09:51;;;;;;;37.58;18.80;;;;;;;-0.32;73.05;102162.88;5033423;28;20025;-78
2022/03/06 01:12:16;;;;;;;34.45;17.88;;;;;;;-0.37;73.41;102163.81;5049277;28;20617;-78
2022/03/06 01:14:41;;;;;;;38.45;18.23;;;;;;;-0.42;73.62;102170.88;5051653;28;20057;-78
2022/03/06 01:17:07;;;;;;;36.47;18.67;;;;;;;-0.45;73.24;102168.25;5031383;28;20055;-78
2022/03/06 01:19:32;;;;;;;35.42;19.40;;;;;;;-0.44;73.05;102171.78;5051622;28;20048;-78
2022/03/06 01:21:57;;;;;;;36.42;17.58;;;;;;;-0.43;73.20;102171.75;5050522;28;20037;-78
2022/03/06 01:24:22;;;;;;;34.05;17.33;;;;;;;-0.43;72.89;102176.19;5050817;28;20036;-78
2022/03/06 01:26:48;;;;;;;35.97;17.67;;;;;;;-0.46;73.25;102163.84;5031692;28;20068;-78
2022/03/06 01:29:13;;;;;;;37.63;17.00;;;;;;;-0.50;73.57;102167.41;5032297;28;20033;-78
2022/03/06 01:31:38;;;;;;;34.22;17.08;;;;;;;-0.50;73.45;102175.31;5032285;28;20029;-78
2022/03/06 01:34:04;;;;;;;32.60;17.88;;;;;;;-0.47;73.53;102174.44;5043735;28;20513;-78
2022/03/06 01:36:31;;;;;;;35.65;18.58;;;;;;;-0.51;73.54;102175.34;5053958;28;20021;-78
2022/03/06 01:38:57;;;;;;;34.85;17.92;;;;;;;-0.50;73.76;102188.53;5032813;28;20480;-78
2022/03/06 01:41:22;;;;;;;33.50;16.38;;;;;;;-0.48;72.99;102183.22;5051030;28;20036;-78
2022/03/06 01:43:47;;;;;;;33.10;16.58;;;;;;;-0.48;73.09;102180.59;5050942;28;20025;-78
2022/03/06 01:46:14;;;;;;;38.97;19.42;;;;;;;-0.46;73.11;102184.13;5030377;28;20416;-78
2022/03/06 01:48:39;;;;;;;32.15;17.15;;;;;;;-0.49;73.18;102186.78;5032645;28;20029;-78
2022/03/06 01:51:04;;;;;;;30.40;16.38;;;;;;;-0.45;72.87;102185.88;5048895;28;20044;-78
2022/03/06 01:53:30;;;;;;;36.90;18.60;;;;;;;-0.42;72.93;102186.72;5032818;28;20051;-78
2022/03/06 01:55:55;;;;;;;34.00;17.70;;;;;;;-0.36;72.88;102191.97;5031455;28;20075;-78
2022/03/06 01:58:20;;;;;;;33.85;17.27;;;;;;;-0.32;72.73;102184.91;5049509;28;20099;-78
2022/03/06 02:00:49;;;;;;;42.33;17.20;;;;;;;-0.27;72.81;102190.16;5049556;28;20021;-78
2022/03/06 02:03:14;;;;;;;36.95;17.40;;;;;;;-0.25;72.62;102183.09;5035479;28;20032;-78
2022/03/06 02:05:40;;;;;;;32.42;16.75;;;;;;;-0.21;72.67;102184.84;5068281;28;20055;-78
2022/03/06 02:08:06;;;;;;;37.05;19.05;;;;;;;-0.22;72.28;102183.97;5050725;28;20050;-78
2022/03/06 02:10:32;;;;;;;36.53;17.95;;;;;;;-0.24;72.76;102185.72;5032336;28;20017;-78
2022/03/06 02:12:58;;;;;;;34.25;17.52;;;;;;;-0.29;72.60;102186.63;5048869;28;20029;-78
2022/03/06 02:15:24;;;;;;;35.60;16.50;;;;;;;-0.41;73.34;102192.88;5031883;28;20021;-78
2022/03/06 02:17:49;;;;;;;31.63;16.98;;;;;;;-0.49;73.20;102195.56;5049209;28;20055;-78
2022/03/06 02:20:22;;;;;;;31.00;17.27;;;;;;;-0.60;73.68;102192.09;5034937;28;20104;-78
2022/03/06 02:22:50;;;;;;;31.73;16.65;;;;;;;-0.65;74.06;102189.50;5050097;28;20029;-78
2022/03/06 02:25:21;;;;;;;35.20;17.35;;;;;;;-0.70;73.85;102188.66;5049344;28;20035;-78
2022/03/06 02:27:49;;;;;;;34.95;17.73;;;;;;;-0.70;74.00;102193.94;5032798;28;20016;-78
2022/03/06 02:30:20;;;;;;;34.15;15.60;;;;;;;-0.72;73.92;102187.75;5030736;28;20025;-78
2022/03/06 02:32:47;;;;;;;33.42;17.63;;;;;;;-0.66;73.96;102194.78;5048667;28;20595;-78
2022/03/06 02:35:12;;;;;;;32.28;16.42;;;;;;;-0.68;73.65;102196.56;5049045;28;20044;-78
2022/03/06 02:37:38;;;;;;;33.20;17.02;;;;;;;-0.69;73.89;102200.06;5049427;28;20032;-78
2022/03/06 02:40:06;;;;;;;33.38;15.45;;;;;;;-0.74;73.95;102195.69;5049419;28;20091;-78
2022/03/06 02:42:34;;;;;;;35.45;16.33;;;;;;;-0.76;74.06;102197.47;5048263;28;20035;-78
2022/03/06 02:45:08;;;;;;;35.05;16.77;;;;;;;-0.77;74.24;102205.41;5031058;28;20536;-78
2022/03/06 02:47:34;;;;;;;35.22;17.42;;;;;;;-0.75;74.08;102203.63;5049320;28;20039;-78
2022/03/06 02:49:59;;;;;;;34.40;17.80;;;;;;;-0.78;74.37;102209.78;5048698;28;20025;-78
2022/03/06 02:52:24;;;;;;;36.03;18.38;;;;;;;-0.79;74.32;102207.16;5030845;28;20017;-78
2022/03/06 02:54:50;;;;;;;33.38;15.27;;;;;;;-0.80;74.41;102205.41;5050498;28;20472;-78
2022/03/06 02:57:15;;;;;;;34.97;17.25;;;;;;;-0.80;74.35;102201.00;5030082;28;20075;-78
2022/03/06 02:59:40;;;;;;;37.10;17.95;;;;;;;-0.78;74.34;102201.88;5047008;28;20035;-78
2022/03/06 03:02:06;;;;;;;29.08;14.18;;;;;;;-0.77;74.55;102206.28;5030510;28;20039;-78
2022/03/06 03:04:33;;;;;;;36.67;15.35;;;;;;;-0.74;74.82;102216.81;5050772;28;20472;-78
2022/03/06 03:06:58;;;;;;;36.20;17.25;;;;;;;-0.72;74.71;102206.25;5030855;28;20057;-78
2022/03/06 03:09:25;;;;;;;32.83;17.67;;;;;;;-0.64;74.72;102203.59;5049460;28;20035;-78
2022/03/06 03:11:50;;;;;;;32.13;16.48;;;;;;;-0.60;74.51;102213.22;5048615;28;20020;-78
2022/03/06 03:14:16;;;;;;;33.20;16.52;;;;;;;-0.59;74.40;102204.44;5051312;28;20035;-78
2022/03/06 03:16:42;;;;;;;31.05;16.58;;;;;;;-0.67;74.58;102215.03;5035585;28;20029;-78
2022/03/06 03:19:07;;;;;;;32.83;14.45;;;;;;;-0.75;74.24;102217.72;5052861;28;20044;-78
2022/03/06 03:21:33;;;;;;;33.83;16.83;;;;;;;-0.84;74.21;102209.81;5052823;28;20065;-78
2022/03/06 03:23:58;;;;;;;31.92;14.65;;;;;;;-0.88;74.19;102213.34;5035758;28;20036;-78
2022/03/06 03:26:24;;;;;;;35.75;16.88;;;;;;;-0.96;74.42;102210.75;5034479;28;20029;-78
2022/03/06 03:28:49;;;;;;;34.40;16.08;;;;;;;-1.00;74.67;102208.13;5052800;28;20044;-78
2022/03/06 03:31:14;;;;;;;33.38;16.92;;;;;;;-1.01;74.86;102206.34;5051090;28;20024;-78
2022/03/06 03:33:40;;;;;;;29.73;15.25;;;;;;;-1.06;74.98;102212.53;5035791;28;20025;-78
2022/03/06 03:36:06;;;;;;;32.78;16.27;;;;;;;-1.07;75.13;102213.44;5052389;28;20748;-78
2022/03/06 03:38:31;;;;;;;32.20;18.40;;;;;;;-1.04;75.51;102207.25;5053830;28;20021;-78
2022/03/06 03:40:57;;;;;;;32.70;15.43;;;;;;;-1.00;75.62;102213.41;5033718;28;20048;-78
2022/03/06 03:43:22;;;;;;;31.33;16.45;;;;;;;-1.00;75.80;102210.75;5052220;28;20487;-78
2022/03/06 03:45:48;;;;;;;35.42;15.75;;;;;;;-0.98;75.79;102211.63;5052767;28;20533;-78
2022/03/06 03:48:13;;;;;;;32.67;16.88;;;;;;;-1.00;75.62;102209.00;5033209;28;20044;-78
2022/03/06 03:50:39;;;;;;;31.80;15.48;;;;;;;-0.98;75.91;102211.63;5052714;28;20020;-78
2022/03/06 03:53:04;;;;;;;31.33;14.38;;;;;;;-0.95;75.64;102215.16;5053195;28;20029;-78
2022/03/06 03:55:29;;;;;;;31.85;15.77;;;;;;;-0.94;75.87;102216.91;5052698;28;20079;-78
2022/03/06 03:57:54;;;;;;;34.92;16.27;;;;;;;-0.94;75.53;102221.28;5052390;28;20036;-78
2022/03/06 04:00:20;;;;;;;30.27;13.90;;;;;;;-0.99;75.82;102216.03;5034674;28;20613;-78
2022/03/06 04:02:45;;;;;;;33.72;17.35;;;;;;;-1.01;75.54;102219.56;5052208;28;20024;-78
2022/03/06 04:05:10;;;;;;;30.48;14.73;;;;;;;-1.03;75.40;102224.84;5053126;28;20033;-78
2022/03/06 04:07:36;;;;;;;33.15;15.73;;;;;;;-1.08;75.82;102219.56;5053518;28;20045;-78
2022/03/06 04:10:02;;;;;;;33.38;15.50;;;;;;;-1.09;76.11;102224.84;5051813;28;20370;-78
2022/03/06 04:12:28;;;;;;;35.28;16.77;;;;;;;-1.13;75.97;102224.00;5033093;28;20109;-78
2022/03/06 04:14:53;;;;;;;33.20;16.45;;;;;;;-1.12;75.88;102232.78;5053081;28;20501;-78
2022/03/06 04:17:18;;;;;;;32.28;15.63;;;;;;;-1.15;75.91;102240.72;5051084;28;20108;-78
2022/03/06 04:19:44;;;;;;;29.90;16.10;;;;;;;-1.20;75.73;102238.09;5034440;28;20064;-77
2022/03/06 04:22:09;;;;;;;34.22;17.08;;;;;;;-1.18;76.34;102240.72;5051755;28;20155;-78
2022/03/06 04:24:34;;;;;;;30.85;14.45;;;;;;;-1.20;76.19;102242.47;5033529;28;20032;-78
2022/03/06 04:26:59;;;;;;;32.63;15.10;;;;;;;-1.20;76.12;102243.38;5051642;28;20174;-78
2022/03/06 04:29:25;;;;;;;33.28;15.55;;;;;;;-1.22;76.61;102250.38;5050467;28;20523;-78
2022/03/06 04:31:50;;;;;;;30.52;16.40;;;;;;;-1.23;76.34;102252.16;5050546;28;20051;-78
2022/03/06 04:34:16;;;;;;;33.20;17.95;;;;;;;-1.24;76.55;102246.88;5057164;28;20373;-78
2022/03/06 04:36:41;;;;;;;28.25;14.32;;;;;;;-1.27;76.59;102249.53;5034141;28;20029;-78
2022/03/06 04:39:07;;;;;;;36.15;16.80;;;;;;;-1.27;76.61;102255.66;5051687;28;20018;-78
2022/03/06 04:41:33;;;;;;;31.50;14.23;;;;;;;-1.27;76.64;102262.72;5051625;28;20033;-78
2022/03/06 04:43:58;;;;;;;33.88;15.02;;;;;;;-1.27;76.33;102262.72;5033185;28;20121;-78
2022/03/06 04:46:23;;;;;;;28.98;13.88;;;;;;;-1.28;76.40;102258.31;5052223;28;20503;-78
2022/03/06 04:48:49;;;;;;;32.50;15.30;;;;;;;-1.29;76.60;102264.47;5033333;28;20368;-78
2022/03/06 04:51:14;;;;;;;34.67;15.90;;;;;;;-1.28;76.81;102271.50;5033426;28;20033;-78
2022/03/06 04:53:40;;;;;;;30.35;14.23;;;;;;;-1.28;76.74;102271.50;5051595;28;20542;-78
2022/03/06 04:56:06;;;;;;;32.95;16.15;;;;;;;-1.32;76.62;102272.38;5051560;28;20035;-78
2022/03/06 04:58:31;;;;;;;29.65;15.73;;;;;;;-1.32;76.35;102272.38;5052164;28;20365;-78
2022/03/06 05:00:57;;;;;;;32.53;15.13;;;;;;;-1.32;76.71;102280.28;5031016;28;20021;-78
2022/03/06 05:03:22;;;;;;;31.50;14.05;;;;;;;-1.36;76.85;102286.44;5033679;28;20470;-78
2022/03/06 05:05:48;;;;;;;32.83;14.70;;;;;;;-1.39;76.74;102291.72;5050592;28;20045;-78
2022/03/06 05:08:14;;;;;;;31.42;15.23;;;;;;;-1.41;76.99;102287.34;5033736;28;20091;-78
2022/03/06 05:10:40;;;;;;;30.90;16.00;;;;;;;-1.42;76.79;102298.75;5048602;28;20037;-78
2022/03/06 05:13:05;;;;;;;33.08;16.52;;;;;;;-1.44;76.79;102292.59;5049919;28;20104;-78
2022/03/06 05:15:31;;;;;;;31.95;15.35;;;;;;;-1.47;76.61;102297.00;5051050;28;20063;-78
2022/03/06 05:17:56;;;;;;;30.63;15.38;;;;;;;-1.49;76.67;102299.63;5050277;28;20425;-78
2022/03/06 05:20:22;;;;;;;31.90;14.85;;;;;;;-1.52;76.86;102299.66;5051162;28;20028;-78
2022/03/06 05:22:48;;;;;;;29.58;14.50;;;;;;;-1.52;77.08;102307.56;5051570;28;20043;-78
2022/03/06 05:25:14;;;;;;;29.40;14.32;;;;;;;-1.54;77.37;102301.38;5050721;28;20466;-78
2022/03/06 05:27:39;;;;;;;33.20;14.93;;;;;;;-1.54;76.87;102300.50;5050345;28;20098;-78
2022/03/06 05:30:07;;;;;;;30.92;15.30;;;;;;;-1.55;77.11;102302.28;5051002;28;20454;-78
2022/03/06 05:32:32;;;;;;;32.22;14.90;;;;;;;-1.56;77.05;102311.06;5016708;28;20522;-78
2022/03/06 05:34:57;;;;;;;32.15;14.02;;;;;;;-1.58;77.08;102310.19;5050917;28;20116;-78
2022/03/06 05:37:23;;;;;;;30.75;14.38;;;;;;;-1.56;77.15;102318.09;5050053;28;20033;-78
2022/03/06 05:39:48;;;;;;;33.42;15.05;;;;;;;-1.52;77.19;102322.47;5050948;28;20063;-78
2022/03/06 05:42:14;;;;;;;32.75;16.10;;;;;;;-1.53;77.11;102318.09;5049265;28;20094;-78
2022/03/06 05:44:40;;;;;;;30.67;14.95;;;;;;;-1.56;76.71;102318.97;5032744;28;20087;-78
2022/03/06 05:47:05;;;;;;;33.85;15.15;;;;;;;-1.57;76.93;102325.13;5049463;28;20485;-78
2022/03/06 05:49:31;;;;;;;31.17;15.27;;;;;;;-1.58;76.78;102324.25;5050251;28;20032;-78
2022/03/06 05:51:56;;;;;;;30.63;14.82;;;;;;;-1.55;76.85;102328.66;5050901;28;20453;-78
2022/03/06 05:54:21;;;;;;;30.90;13.82;;;;;;;-1.54;77.08;102327.75;5032166;28;20033;-78
2022/03/06 05:56:46;;;;;;;29.15;15.68;;;;;;;-1.54;76.99;102327.75;5030826;28;20094;-78
2022/03/06 05:59:12;;;;;;;28.52;14.82;;;;;;;-1.51;76.85;102332.16;5049264;28;20055;-78
2022/03/06 06:01:38;;;;;;;29.20;12.43;;;;;;;-1.53;76.96;102332.16;5048213;28;20036;-78
2022/03/06 06:04:03;;;;;;;28.98;14.52;;;;;;;-1.53;76.65;102340.06;5061084;28;20032;-77
2022/03/06 06:06:29;;;;;;;31.27;13.88;;;;;;;-1.53;77.02;102334.78;5032439;28;20501;-77
2022/03/06 06:08:55;;;;;;;27.83;13.88;;;;;;;-1.52;76.67;102344.47;5032479;28;20063;-77
2022/03/06 06:11:20;;;;;;;30.35;16.05;;;;;;;-1.54;76.49;102343.56;5030598;28;20135;-78
2022/03/06 06:13:46;;;;;;;32.97;14.35;;;;;;;-1.50;76.66;102345.34;5032213;28;20027;-78
2022/03/06 06:16:11;;;;;;;28.33;12.63;;;;;;;-1.53;76.57;102345.34;5045727;28;20032;-77
2022/03/06 06:18:36;;;;;;;30.90;14.65;;;;;;;-1.52;76.69;102351.47;5023806;28;20036;-78
2022/03/06 06:21:02;;;;;;;29.02;13.90;;;;;;;-1.55;76.57;102352.38;5044980;28;20032;-78
2022/03/06 06:23:27;;;;;;;29.33;14.45;;;;;;;-1.55;76.86;102357.66;5027126;28;20087;-78
2022/03/06 06:25:53;;;;;;;29.20;14.27;;;;;;;-1.51;76.68;102362.03;5024842;28;20037;-78
2022/03/06 06:28:18;;;;;;;28.33;12.93;;;;;;;-1.44;76.56;102361.16;5049205;28;21117;-77
2022/03/06 06:30:43;;;;;;;29.50;14.57;;;;;;;-1.39;76.39;102360.28;5031623;28;20021;-78
2022/03/06 06:33:09;;;;;;;29.50;14.82;;;;;;;-1.36;76.04;102360.28;5030253;28;20017;-78
2022/03/06 06:35:34;;;;;;;30.30;13.40;;;;;;;-1.34;76.14;102367.31;5050062;28;20056;-78
2022/03/06 06:38:01;;;;;;;28.45;14.43;;;;;;;-1.34;75.91;102372.59;5031329;28;20033;-78
2022/03/06 06:40:26;;;;;;;30.00;14.32;;;;;;;-1.31;75.82;102366.47;5032013;28;20477;-78
2022/03/06 06:42:52;;;;;;;33.63;15.52;;;;;;;-1.34;75.71;102366.47;5048545;28;20028;-78
2022/03/06 06:45:17;;;;;;;29.38;14.93;;;;;;;-1.34;75.69;102367.31;5032619;28;20397;-78
2022/03/06 06:47:43;;;;;;;32.70;15.02;;;;;;;-1.32;75.80;102373.50;5047958;28;20400;-78
2022/03/06 06:50:08;;;;;;;28.75;15.00;;;;;;;-1.29;75.55;102377.88;5049125;28;20043;-78
2022/03/06 06:52:34;;;;;;;28.75;15.02;;;;;;;-1.26;75.73;102385.78;5032161;28;20032;-78
2022/03/06 06:54:59;;;;;;;33.33;15.98;;;;;;;-1.22;75.47;102384.91;5042895;28;20041;-78
2022/03/06 06:57:24;;;;;;;29.35;14.48;;;;;;;-1.19;75.63;102386.69;5029834;28;20075;-78
2022/03/06 06:59:50;;;;;;;31.85;16.45;;;;;;;-1.18;75.58;102389.31;5031390;28;20040;-78
2022/03/06 07:02:15;;;;;;;31.58;15.68;;;;;;;-1.18;75.66;102391.97;5043021;28;20025;-78
2022/03/06 07:04:40;;;;;;;28.10;13.90;;;;;;;-1.16;75.60;102397.22;5033396;28;20025;-78
2022/03/06 07:07:05;;;;;;;30.40;14.38;;;;;;;-1.15;75.57;102397.22;5037004;28;20040;-78
2022/03/06 07:09:31;;;;;;;31.00;14.05;;;;;;;-1.11;75.59;102401.63;5049808;28;20039;-78
2022/03/06 07:11:56;;;;;;;30.23;16.17;;;;;;;-1.10;75.41;102402.50;5047892;28;20551;-78
2022/03/06 07:14:21;;;;;;;27.05;13.88;;;;;;;-1.06;75.63;102404.28;5048664;28;20040;-78
2022/03/06 07:16:47;;;;;;;29.90;14.27;;;;;;;-1.04;75.69;102406.91;5047767;28;20031;-77
2022/03/06 07:19:12;;;;;;;40.22;14.35;;;;;;;-0.99;75.34;102400.75;5048605;28;20435;-77
2022/03/06 07:21:37;;;;;;;33.35;14.68;;;;;;;-0.98;75.29;102397.25;5049394;28;20116;-77
2022/03/06 07:24:07;;;;;;;33.70;15.93;;;;;;;-0.92;75.26;102399.00;5049148;28;20045;-78
2022/03/06 07:26:32;;;;;;;31.60;15.05;;;;;;;-0.86;75.25;102411.28;5049052;28;20037;-78
2022/03/06 07:28:58;;;;;;;27.58;14.68;;;;;;;-0.82;74.88;102407.78;5048689;28;20036;-78
2022/03/06 07:31:23;;;;;;;28.25;14.50;;;;;;;-0.80;75.27;102406.91;5029763;28;20102;-78
2022/03/06 07:33:48;;;;;;;27.90;13.82;;;;;;;-0.76;75.01;102413.94;5035424;28;20059;-78
2022/03/06 07:36:13;;;;;;;29.73;14.80;;;;;;;-0.72;75.15;102421.00;5031013;28;20067;-78
2022/03/06 07:38:39;;;;;;;29.75;14.50;;;;;;;-0.67;74.73;102422.72;5049210;28;20057;-78
2022/03/06 07:41:04;;;;;;;33.33;15.88;;;;;;;-0.63;75.28;102427.13;5047494;28;20028;-78
2022/03/06 07:43:29;;;;;;;28.60;14.38;;;;;;;-0.60;75.13;102424.47;5049840;28;20032;-78
2022/03/06 07:45:55;;;;;;;29.25;15.63;;;;;;;-0.56;74.69;102429.78;5030799;28;20024;-77
2022/03/06 07:48:21;;;;;;;29.65;14.10;;;;;;;-0.53;74.19;102436.78;5048035;28;20098;-78
2022/03/06 07:50:46;;;;;;;28.98;14.65;;;;;;;-0.49;74.69;102443.84;5031152;28;20029;-78
2022/03/06 07:53:11;;;;;;;30.50;15.02;;;;;;;-0.43;74.09;102443.81;5048519;28;20110;-78
2022/03/06 07:55:37;;;;;;;29.65;15.00;;;;;;;-0.42;73.93;102440.31;5033151;28;20104;-78
2022/03/06 07:58:02;;;;;;;30.83;15.43;;;;;;;-0.38;74.39;102442.06;5016706;28;20037;-78
2022/03/06 08:00:27;;;;;;;30.45;16.13;;;;;;;-0.34;74.88;102447.34;5044502;28;20769;-78
2022/03/06 08:02:56;;;;;;;29.33;14.73;;;;;;;-0.26;74.98;102461.41;5031876;28;20060;-78
2022/03/06 08:05:21;;;;;;;33.28;14.50;;;;;;;-0.23;74.52;102464.06;5051842;28;20045;-77
2022/03/06 08:07:46;;;;;;;31.25;14.32;;;;;;;-0.17;74.06;102461.38;5051804;28;20668;-78
2022/03/06 08:10:12;;;;;;;32.38;15.60;;;;;;;-0.11;73.78;102463.13;5051764;28;20439;-78
2022/03/06 08:12:37;;;;;;;28.73;14.35;;;;;;;-0.07;74.28;102457.84;5049305;28;20025;-78
2022/03/06 08:15:03;;;;;;;29.83;16.17;;;;;;;-0.01;74.00;102456.94;5049633;28;20477;-78
2022/03/06 08:17:29;;;;;;;28.83;14.25;;;;;;;0.04;73.18;102462.22;5031039;28;20902;-78
2022/03/06 08:19:54;;;;;;;30.35;15.35;;;;;;;0.09;74.15;102463.06;5052455;28;20024;-78
2022/03/06 08:22:21;;;;;;;28.75;14.70;;;;;;;0.14;74.22;102471.88;5034496;28;20029;-78
2022/03/06 08:24:46;;;;;;;28.92;14.70;;;;;;;0.20;73.90;102466.53;5052119;28;20484;-78
2022/03/06 08:27:11;;;;;;;31.13;15.80;;;;;;;0.23;73.42;102470.94;5051104;28;20040;-78
2022/03/06 08:29:37;;;;;;;27.88;13.65;;;;;;;0.29;73.86;102465.63;5033239;28;20024;-79
2022/03/06 08:32:02;;;;;;;28.55;15.13;;;;;;;0.34;73.88;102475.31;5051463;28;20060;-78
2022/03/06 08:34:27;;;;;;;27.38;13.52;;;;;;;0.41;73.65;102480.56;5053528;28;20412;-79
2022/03/06 08:36:53;;;;;;;29.08;13.68;;;;;;;0.45;73.38;102475.25;5022434;28;20079;-79
2022/03/06 08:39:18;;;;;;;30.73;15.05;;;;;;;0.51;73.62;102479.63;5049138;28;20032;-78
2022/03/06 08:41:43;;;;;;;30.02;15.77;;;;;;;0.55;73.19;102484.03;5020763;28;20399;-78
2022/03/06 08:44:09;;;;;;;30.90;14.82;;;;;;;0.59;72.85;102485.78;5030659;28;20021;-78
2022/03/06 08:46:34;;;;;;;29.90;14.68;;;;;;;0.65;73.18;102485.72;5031809;28;20029;-78
2022/03/06 08:48:59;;;;;;;32.03;14.63;;;;;;;0.73;72.86;102488.31;5066553;28;20032;-78
2022/03/06 08:51:24;;;;;;;30.15;13.98;;;;;;;0.80;72.51;102483.88;5033479;28;20515;-78
2022/03/06 08:53:50;;;;;;;30.52;13.95;;;;;;;0.87;73.66;102486.47;5051472;28;20043;-79
2022/03/06 08:56:15;;;;;;;29.33;14.27;;;;;;;0.94;72.05;102487.34;5050508;28;20025;-78
2022/03/06 08:58:41;;;;;;;28.10;13.70;;;;;;;0.96;71.94;102480.25;5051823;28;20025;-78
2022/03/06 09:01:06;;;;;;;31.13;15.52;;;;;;;1.01;72.00;102491.69;5033841;28;20048;-78
2022/03/06 09:03:32;;;;;;;27.95;13.23;;;;;;;1.07;72.50;102490.78;5050162;28;20025;-78
2022/03/06 09:05:57;;;;;;;29.55;15.10;;;;;;;1.12;71.04;102490.75;5047717;28;20076;-77
2022/03/06 09:08:22;;;;;;;29.88;15.15;;;;;;;1.16;72.54;102496.00;5044496;28;20078;-78
2022/03/06 09:10:48;;;;;;;29.02;14.82;;;;;;;1.24;72.39;102495.06;5027897;28;20025;-77
2022/03/06 09:13:13;;;;;;;30.20;13.38;;;;;;;1.30;71.77;102495.88;5046724;28;20036;-76
2022/03/06 09:15:38;;;;;;;26.60;13.45;;;;;;;1.35;71.26;102501.16;5047436;28;20129;-77
2022/03/06 09:18:04;;;;;;;30.30;15.10;;;;;;;1.39;70.95;102506.41;5050936;28;20048;-77
2022/03/06 09:20:30;;;;;;;29.73;13.32;;;;;;;1.44;71.36;102495.78;5040774;28;20108;-77
2022/03/06 09:22:56;;;;;;;27.73;13.02;;;;;;;1.50;71.31;102497.50;5044372;28;20096;-77
2022/03/06 09:25:21;;;;;;;27.83;14.63;;;;;;;1.54;70.57;102497.44;5031801;28;20032;-77
2022/03/06 09:27:46;;;;;;;28.95;13.50;;;;;;;1.61;70.19;102500.03;5042895;28;20033;-77
2022/03/06 09:30:13;;;;;;;27.05;13.77;;;;;;;1.68;70.38;102496.44;5012307;28;20083;-77
2022/03/06 09:32:38;;;;;;;27.52;14.52;;;;;;;1.74;70.36;102497.28;5018911;28;20576;-77
2022/03/06 09:35:05;;;;;;;24.58;11.55;;;;;;;1.80;68.92;102488.38;5049906;28;20013;-77
2022/03/06 09:37:30;;;;;;;27.77;12.60;;;;;;;1.85;69.87;102490.97;5046787;28;20078;-77
2022/03/06 09:39:56;;;;;;;28.52;14.10;;;;;;;1.90;69.96;102487.38;5049320;28;20572;-79
2022/03/06 09:42:22;;;;;;;25.67;13.45;;;;;;;1.97;70.29;102493.50;5044283;28;20482;-78
2022/03/06 09:44:49;;;;;;;30.30;13.63;;;;;;;2.02;69.44;102491.69;5047504;28;20500;-78
2022/03/06 09:47:16;;;;;;;27.65;13.40;;;;;;;2.06;69.68;102489.84;5048827;28;20032;-78
2022/03/06 09:49:44;;;;;;;28.00;13.57;;;;;;;2.12;70.03;102495.09;5031983;28;20060;-78
2022/03/06 09:52:09;;;;;;;25.27;12.52;;;;;;;2.18;68.41;102487.09;5030526;28;20555;-78
2022/03/06 09:54:35;;;;;;;29.33;13.45;;;;;;;2.23;68.53;102484.38;5045799;28;20044;-78
2022/03/06 09:57:00;;;;;;;26.92;13.23;;;;;;;2.30;68.25;102490.47;5045368;28;20131;-77
2022/03/06 09:59:26;;;;;;;29.20;13.70;;;;;;;2.37;68.91;102486.84;5050697;28;20523;-78
2022/03/06 10:01:51;;;;;;;25.42;13.90;;;;;;;2.43;68.28;102492.06;5049917;28;20158;-77
2022/03/06 10:04:29;;;;;;;28.27;14.18;;;;;;;2.47;69.66;102479.63;5047720;28;20025;-77
2022/03/06 10:07:06;;;;;;;25.65;13.20;;;;;;;2.52;67.95;102486.66;5049811;28;20052;-77
2022/03/06 10:09:33;;;;;;;24.95;12.95;;;;;;;2.57;67.89;102486.59;5050440;28;20021;-77
2022/03/06 10:11:59;;;;;;;25.77;12.20;;;;;;;2.60;67.38;102482.09;5031207;28;20454;-78
2022/03/06 10:14:39;;;;;;;27.13;14.25;;;;;;;2.67;67.30;102488.22;5031372;28;20082;-77
2022/03/06 10:17:13;;;;;;;27.20;13.77;;;;;;;2.72;67.38;102493.44;5049388;28;20083;-77
2022/03/06 10:19:49;;;;;;;26.73;13.55;;;;;;;2.76;66.07;102496.03;5050246;28;20033;-78
2022/03/06 10:22:14;;;;;;;27.70;13.25;;;;;;;2.78;65.70;102494.25;5012843;28;20087;-78
2022/03/06 10:25:00;;;;;;;32.13;13.25;;;;;;;2.83;65.21;102501.28;5048864;28;20033;-77
2022/03/06 10:28:02;;;;;;;27.15;13.52;;;;;;;2.87;65.68;102490.59;5049132;28;20037;-78
2022/03/06 10:30:33;;;;;;;26.70;13.05;;;;;;;2.91;66.93;102496.72;4968936;28;20105;-78
2022/03/06 10:33:12;;;;;;;28.58;14.02;;;;;;;2.98;66.58;102495.72;4962496;28;20072;-78
2022/03/06 10:35:39;;;;;;;26.63;11.88;;;;;;;3.03;65.33;102493.00;4970219;28;20042;-78
2022/03/06 10:38:23;;;;;;;26.38;12.85;;;;;;;3.07;65.21;102495.59;4967979;28;20521;-78
2022/03/06 10:40:50;;;;;;;27.88;12.68;;;;;;;3.11;64.85;102497.28;4957688;28;20042;-78
2022/03/06 10:43:21;;;;;;;26.27;13.63;;;;;;;3.14;63.51;102491.94;4963460;28;20118;-79
2022/03/06 10:45:48;;;;;;;25.80;12.57;;;;;;;3.22;66.02;102498.91;4966444;28;20066;-77
2022/03/06 10:48:13;;;;;;;25.17;12.98;;;;;;;3.28;65.33;102499.69;4964609;28;20031;-78
2022/03/06 10:50:39;;;;;;;24.67;11.75;;;;;;;3.32;64.78;102493.44;4965678;28;20125;-77
2022/03/06 10:53:24;;;;;;;26.27;13.38;;;;;;;3.38;65.67;102495.09;4968723;28;20031;-77
2022/03/06 10:55:51;;;;;;;27.13;12.70;;;;;;;3.45;66.69;102501.19;4967739;28;20145;-77
2022/03/06 10:58:18;;;;;;;25.55;12.45;;;;;;;3.52;65.14;102496.66;4968001;28;20443;-77
2022/03/06 11:00:45;;;;;;;24.58;12.57;;;;;;;3.56;63.51;102487.69;4936311;28;20034;-77
2022/03/06 11:03:12;;;;;;;25.90;13.00;;;;;;;3.63;63.78;102489.34;4972199;28;20108;-78
2022/03/06 11:05:42;;;;;;;23.98;11.95;;;;;;;3.71;64.63;102483.91;5048502;28;20134;-78
2022/03/06 11:08:10;;;;;;;25.50;12.63;;;;;;;3.76;62.59;102493.53;5018311;28;20745;-78